Time;durP1;ratioP1;P1;durP2;ratioP2;P2;SDS_P1;SDS_P2;PMS_P1;PMS_P2;Temp;Humidity;BMP_temperature;BMP_pressure;BME280_temperature;BME280_humidity;BME280_pressure;Samples;Min_cycle;Max_cycle;Signal;HPM_P1;HPM_P2
2023/12/14 00:01:41;;;;;;;33.33;24.08;;;;;;;6.81;100.00;100770.78;5064806;28;20028;-79
2023/12/14 00:04:06;;;;;;;26.00;21.65;;;;;;;6.80;100.00;100782.13;5059991;28;20099;-80
2023/12/14 00:06:32;;;;;;;26.80;21.15;;;;;;;6.74;100.00;100777.28;5067053;28;20115;-80
2023/12/14 00:09:00;;;;;;;24.13;21.20;;;;;;;6.70;100.00;100788.00;5051674;28;20029;-80
2023/12/14 00:11:25;;;;;;;23.30;20.48;;;;;;;6.65;100.00;100790.91;5047545;28;20074;-80
2023/12/14 00:13:51;;;;;;;23.63;20.33;;;;;;;6.66;100.00;100800.41;5051262;28;20107;-80
2023/12/14 00:16:16;;;;;;;23.17;20.65;;;;;;;6.62;100.00;100798.91;5046935;28;20091;-80
2023/12/14 00:18:42;;;;;;;23.35;20.40;;;;;;;6.56;100.00;100814.97;5065663;28;20024;-80
2023/12/14 00:21:07;;;;;;;25.73;21.40;;;;;;;6.49;100.00;100816.25;5068820;28;20035;-80
2023/12/14 00:23:34;;;;;;;24.30;21.23;;;;;;;6.44;100.00;100820.91;5067431;28;20601;-80
2023/12/14 00:25:59;;;;;;;24.08;21.48;;;;;;;6.46;100.00;100829.50;5068591;28;20384;-80
2023/12/14 00:28:24;;;;;;;22.92;20.40;;;;;;;6.43;100.00;100834.91;5067086;28;20017;-80
2023/12/14 00:30:50;;;;;;;23.55;20.65;;;;;;;6.42;100.00;100838.44;5068842;28;20068;-80
2023/12/14 00:33:18;;;;;;;25.45;21.20;;;;;;;6.37;100.00;100858.75;5053456;28;20044;-80
2023/12/14 00:35:43;;;;;;;24.17;21.35;;;;;;;6.38;100.00;100860.41;5067522;28;20021;-80
2023/12/14 00:38:09;;;;;;;27.63;21.90;;;;;;;6.30;100.00;100863.47;5065869;28;20097;-80
2023/12/14 00:40:34;;;;;;;27.00;22.65;;;;;;;6.27;100.00;100877.53;5061834;28;20558;-80
2023/12/14 00:42:59;;;;;;;27.30;22.67;;;;;;;6.22;100.00;100884.81;5064139;28;20119;-80
2023/12/14 00:45:25;;;;;;;28.33;22.00;;;;;;;6.18;100.00;100883.28;5066898;28;20065;-79
2023/12/14 00:47:50;;;;;;;27.73;23.33;;;;;;;6.13;100.00;100885.31;5057990;28;20097;-79
2023/12/14 00:50:15;;;;;;;31.17;24.58;;;;;;;6.05;100.00;100886.66;5051742;28;20392;-79
2023/12/14 00:52:41;;;;;;;31.25;24.33;;;;;;;6.00;100.00;100889.50;5066453;28;20476;-79
2023/12/14 00:55:06;;;;;;;31.80;24.92;;;;;;;5.96;100.00;100893.22;5065418;28;20555;-79
2023/12/14 00:57:31;;;;;;;30.58;24.75;;;;;;;5.92;100.00;100899.53;5052079;28;20036;-79
2023/12/14 00:59:59;;;;;;;31.73;24.45;;;;;;;5.92;100.00;100894.31;5066343;28;20055;-79
2023/12/14 01:02:25;;;;;;;29.75;24.60;;;;;;;5.83;100.00;100894.78;5050115;28;20024;-80
2023/12/14 01:04:50;;;;;;;31.25;24.08;;;;;;;5.80;100.00;100908.00;5061569;28;20744;-79
2023/12/14 01:07:15;;;;;;;30.52;24.77;;;;;;;5.73;100.00;100906.63;5054976;28;20056;-79
2023/12/14 01:09:41;;;;;;;31.42;24.33;;;;;;;5.70;100.00;100906.78;5051216;28;20110;-79
2023/12/14 01:12:06;;;;;;;31.92;24.50;;;;;;;5.66;100.00;100917.41;5054225;28;20063;-79
2023/12/14 01:14:31;;;;;;;31.33;24.25;;;;;;;5.65;100.00;100925.31;5065219;28;20032;-79
2023/12/14 01:17:00;;;;;;;32.03;23.98;;;;;;;5.59;100.00;100931.66;5063662;28;20029;-79
2023/12/14 01:19:25;;;;;;;29.70;24.00;;;;;;;5.51;100.00;100939.06;5072536;28;20020;-79
2023/12/14 01:21:50;;;;;;;27.85;22.65;;;;;;;5.48;100.00;100943.59;5069449;28;20024;-79
2023/12/14 01:24:16;;;;;;;25.40;21.10;;;;;;;5.42;100.00;100949.97;5055490;28;20033;-79
2023/12/14 01:26:41;;;;;;;26.88;21.45;;;;;;;5.41;100.00;100958.72;5053022;28;20025;-79
2023/12/14 01:29:06;;;;;;;25.73;21.42;;;;;;;5.37;100.00;100964.19;5065929;28;20034;-79
2023/12/14 01:31:32;;;;;;;24.70;20.67;;;;;;;5.38;100.00;100968.47;5055275;28;20168;-79
2023/12/14 01:34:00;;;;;;;23.92;21.02;;;;;;;5.36;100.00;100971.16;5053604;28;20055;-79
2023/12/14 01:36:26;;;;;;;25.42;20.90;;;;;;;5.35;100.00;100974.69;5057758;28;20025;-79
2023/12/14 01:38:52;;;;;;;26.92;21.90;;;;;;;5.38;100.00;100984.13;5058859;28;20149;-79
2023/12/14 01:41:18;;;;;;;25.30;21.35;;;;;;;5.35;100.00;100985.13;5069425;28;20854;-80
2023/12/14 01:43:44;;;;;;;24.80;22.13;;;;;;;5.36;100.00;100986.81;5070358;28;20634;-80
2023/12/14 01:46:10;;;;;;;25.35;21.48;;;;;;;5.33;100.00;100997.41;5058481;28;20112;-79
2023/12/14 01:48:35;;;;;;;25.67;21.35;;;;;;;5.36;100.00;100997.25;5070078;28;20028;-79
2023/12/14 01:51:01;;;;;;;23.55;20.67;;;;;;;5.34;100.00;101004.31;5069180;28;20032;-79
2023/12/14 01:53:26;;;;;;;22.83;20.15;;;;;;;5.36;100.00;100999.84;5065352;28;20032;-80
2023/12/14 01:55:52;;;;;;;24.27;20.83;;;;;;;5.32;100.00;101009.59;5068008;28;20024;-80
2023/12/14 01:58:17;;;;;;;23.67;20.55;;;;;;;5.32;100.00;101021.81;5061307;28;20052;-80
2023/12/14 02:00:49;;;;;;;24.65;20.88;;;;;;;5.29;100.00;101024.56;5051798;28;20047;-80
2023/12/14 02:03:16;;;;;;;22.67;20.23;;;;;;;5.26;100.00;101024.72;5054398;28;20028;-80
2023/12/14 02:05:41;;;;;;;22.15;19.20;;;;;;;5.21;100.00;101030.16;5051914;28;20040;-80
2023/12/14 02:08:07;;;;;;;22.10;18.52;;;;;;;5.22;100.00;101041.44;5064120;28;20021;-80
2023/12/14 02:10:32;;;;;;;21.92;19.42;;;;;;;5.22;100.00;101044.06;5071848;28;20028;-80
2023/12/14 02:12:58;;;;;;;22.73;19.20;;;;;;;5.18;100.00;101045.94;5070972;28;20031;-80
2023/12/14 02:15:23;;;;;;;22.85;20.02;;;;;;;5.20;100.00;101051.06;5070594;28;20043;-80
2023/12/14 02:17:49;;;;;;;21.88;19.10;;;;;;;5.21;100.00;101058.84;5067614;28;20024;-80
2023/12/14 02:20:14;;;;;;;22.58;19.80;;;;;;;5.21;100.00;101065.84;5054793;28;20043;-80
2023/12/14 02:22:50;;;;;;;23.45;19.50;;;;;;;5.22;100.00;101068.38;5065438;28;20024;-80
2023/12/14 02:25:19;;;;;;;22.85;19.15;;;;;;;5.19;100.00;101071.09;5057715;28;20056;-80
2023/12/14 02:27:45;;;;;;;22.17;19.27;;;;;;;5.14;100.00;101070.47;5067421;28;20032;-80
2023/12/14 02:30:12;;;;;;;23.42;18.80;;;;;;;5.18;100.00;101073.78;5058435;28;20655;-80
2023/12/14 02:32:38;;;;;;;22.30;19.45;;;;;;;5.16;100.00;101068.63;5070478;28;20464;-80
2023/12/14 02:35:05;;;;;;;23.83;19.88;;;;;;;5.15;100.00;101081.75;5062477;28;20101;-80
2023/12/14 02:37:31;;;;;;;24.73;20.33;;;;;;;5.13;100.00;101086.19;5056316;28;20021;-80
2023/12/14 02:40:00;;;;;;;24.30;20.35;;;;;;;5.10;100.00;101092.41;5067427;28;20047;-80
2023/12/14 02:42:26;;;;;;;25.13;20.45;;;;;;;5.10;100.00;101095.00;5068994;28;20036;-80
2023/12/14 02:44:51;;;;;;;24.95;20.35;;;;;;;5.11;100.00;101101.06;5070839;28;20024;-80
2023/12/14 02:47:17;;;;;;;24.52;20.50;;;;;;;5.08;100.00;101101.22;5068794;28;20033;-80
2023/12/14 02:49:43;;;;;;;24.88;20.20;;;;;;;5.08;100.00;101111.66;5055442;28;20611;-80
2023/12/14 02:52:09;;;;;;;24.77;20.27;;;;;;;5.08;100.00;101109.03;5064852;28;20479;-80
2023/12/14 02:54:34;;;;;;;23.50;20.52;;;;;;;5.07;100.00;101120.38;5064748;28;20056;-80
2023/12/14 02:56:59;;;;;;;27.70;20.38;;;;;;;5.06;100.00;101119.53;5067457;28;20055;-80
2023/12/14 02:59:25;;;;;;;25.75;20.10;;;;;;;5.07;100.00;101116.03;5061273;28;20078;-80
2023/12/14 03:01:50;;;;;;;24.40;20.88;;;;;;;5.05;100.00;101123.06;5050786;28;20017;-80
2023/12/14 03:04:16;;;;;;;23.80;20.15;;;;;;;5.06;100.00;101134.34;5048471;28;20490;-80
2023/12/14 03:06:41;;;;;;;23.23;20.38;;;;;;;5.01;100.00;101134.56;5050012;28;20025;-80
2023/12/14 03:09:06;;;;;;;25.23;20.40;;;;;;;5.01;100.00;101135.41;5055612;28;20435;-80
2023/12/14 03:11:32;;;;;;;23.30;20.80;;;;;;;4.99;100.00;101145.06;5062612;28;20032;-80
2023/12/14 03:13:57;;;;;;;22.88;20.08;;;;;;;4.98;100.00;101145.13;5068325;28;20373;-80
2023/12/14 03:16:23;;;;;;;22.13;19.35;;;;;;;4.97;100.00;101143.44;5067415;28;20060;-80
2023/12/14 03:18:52;;;;;;;22.48;20.08;;;;;;;4.95;100.00;101146.13;5056965;28;20032;-80
2023/12/14 03:21:18;;;;;;;25.08;20.90;;;;;;;4.97;100.00;101146.06;5070261;28;20033;-80
2023/12/14 03:23:44;;;;;;;22.70;20.30;;;;;;;4.95;100.00;101153.94;5060611;28;20024;-80
2023/12/14 03:26:09;;;;;;;24.33;21.15;;;;;;;4.94;100.00;101152.25;5049107;28;20040;-79
2023/12/14 03:28:34;;;;;;;25.05;21.85;;;;;;;4.91;100.00;101146.34;5061344;28;20021;-79
2023/12/14 03:31:00;;;;;;;24.08;20.75;;;;;;;4.93;100.00;101147.13;5058315;28;20040;-80
2023/12/14 03:33:25;;;;;;;22.77;20.38;;;;;;;4.91;100.00;101155.00;5050931;28;20032;-80
2023/12/14 03:35:51;;;;;;;24.60;21.70;;;;;;;4.90;100.00;101158.53;5058640;28;20047;-80
2023/12/14 03:38:16;;;;;;;23.80;21.10;;;;;;;4.90;100.00;101152.47;5052201;28;20036;-81
2023/12/14 03:40:41;;;;;;;24.58;20.60;;;;;;;4.87;100.00;101166.50;5055204;28;20036;-81
2023/12/14 03:43:07;;;;;;;24.15;21.42;;;;;;;4.87;100.00;101166.50;5057726;28;20183;-81
2023/12/14 03:45:32;;;;;;;24.70;21.92;;;;;;;4.87;100.00;101165.66;5055040;28;20032;-81
2023/12/14 03:47:58;;;;;;;25.60;22.38;;;;;;;4.86;100.00;101172.63;5067824;28;20024;-81
2023/12/14 03:50:23;;;;;;;24.45;21.88;;;;;;;4.87;100.00;101176.91;5067987;28;20115;-81
2023/12/14 03:52:49;;;;;;;26.30;22.52;;;;;;;4.85;100.00;101183.13;5060931;28;20388;-81
2023/12/14 03:55:17;;;;;;;24.83;22.17;;;;;;;4.87;100.00;101187.34;5050152;28;20024;-81
2023/12/14 03:57:42;;;;;;;25.00;22.40;;;;;;;4.81;100.00;101179.81;5064446;28;20037;-81
2023/12/14 04:00:12;;;;;;;23.95;21.55;;;;;;;4.83;100.00;101185.78;5067282;28;20380;-81
2023/12/14 04:02:38;;;;;;;24.08;21.63;;;;;;;4.82;100.00;101189.31;5049418;28;20116;-81
2023/12/14 04:05:05;;;;;;;25.10;22.40;;;;;;;4.83;100.00;101192.78;5049127;28;20028;-81
2023/12/14 04:07:31;;;;;;;24.42;21.73;;;;;;;4.81;100.00;101192.84;5057206;28;20035;-81
2023/12/14 04:09:56;;;;;;;24.88;21.90;;;;;;;4.80;100.00;101193.72;5055228;28;20025;-81
2023/12/14 04:12:21;;;;;;;25.10;22.60;;;;;;;4.80;100.00;101185.91;5049355;28;20494;-81
2023/12/14 04:14:47;;;;;;;23.50;21.13;;;;;;;4.79;100.00;101183.38;5053935;28;20077;-81
2023/12/14 04:17:12;;;;;;;24.45;21.95;;;;;;;4.76;100.00;101193.94;5059324;28;20022;-81
2023/12/14 04:19:38;;;;;;;25.00;21.83;;;;;;;4.76;100.00;101200.00;5059869;28;20028;-81
2023/12/14 04:22:04;;;;;;;24.63;22.02;;;;;;;4.76;100.00;101194.78;5069837;28;20083;-81
2023/12/14 04:24:30;;;;;;;23.30;21.00;;;;;;;4.73;100.00;101200.13;5066878;28;20492;-81
2023/12/14 04:26:55;;;;;;;23.42;21.02;;;;;;;4.76;100.00;101214.78;5054362;28;20159;-81
2023/12/14 04:29:20;;;;;;;25.55;20.80;;;;;;;4.76;100.00;101220.00;5058145;28;20465;-81
2023/12/14 04:31:46;;;;;;;24.40;21.90;;;;;;;4.77;100.00;101230.34;5055985;28;20127;-81
2023/12/14 04:34:15;;;;;;;22.50;20.25;;;;;;;4.78;100.00;101242.47;5061124;28;20016;-81
2023/12/14 04:36:41;;;;;;;23.63;21.20;;;;;;;4.76;100.00;101239.09;5055500;28;20502;-81
2023/12/14 04:39:06;;;;;;;22.60;20.08;;;;;;;4.76;100.00;101246.06;5063169;28;20029;-81
2023/12/14 04:41:32;;;;;;;23.90;21.38;;;;;;;4.74;100.00;101246.13;5051586;28;20039;-81
2023/12/14 04:44:00;;;;;;;23.00;20.70;;;;;;;4.74;100.00;101253.94;5057176;28;20021;-81
2023/12/14 04:46:25;;;;;;;25.55;21.85;;;;;;;4.73;100.00;101257.47;5069039;28;20060;-81
2023/12/14 04:48:51;;;;;;;24.45;21.88;;;;;;;4.72;100.00;101274.03;5068875;28;20040;-81
2023/12/14 04:51:16;;;;;;;24.02;21.63;;;;;;;4.74;100.00;101280.00;5061660;28;20021;-81
2023/12/14 04:53:41;;;;;;;25.65;22.75;;;;;;;4.76;100.00;101286.00;5050622;28;20110;-80
2023/12/14 04:56:11;;;;;;;24.35;22.00;;;;;;;4.78;100.00;101280.72;5047598;28;20028;-80
2023/12/14 04:58:38;;;;;;;25.35;22.80;;;;;;;4.76;100.00;101272.97;5047472;28;20396;-81
2023/12/14 05:01:03;;;;;;;25.65;23.00;;;;;;;4.78;100.00;101281.56;5058575;28;20414;-81
2023/12/14 05:03:29;;;;;;;25.25;22.67;;;;;;;4.78;100.00;101289.38;5066123;28;20028;-81
2023/12/14 05:05:54;;;;;;;26.58;23.40;;;;;;;4.79;100.00;101298.06;5064722;28;20104;-81
2023/12/14 05:08:19;;;;;;;26.23;23.42;;;;;;;4.77;100.00;101300.72;5053478;28;20037;-81
2023/12/14 05:10:45;;;;;;;25.92;23.13;;;;;;;4.78;100.00;101307.63;5050801;28;20037;-81
2023/12/14 05:13:10;;;;;;;25.95;23.10;;;;;;;4.73;100.00;101309.59;5057547;28;20028;-81
2023/12/14 05:15:35;;;;;;;25.80;23.17;;;;;;;4.77;100.00;101326.81;5063643;28;20123;-82
2023/12/14 05:18:01;;;;;;;25.77;22.85;;;;;;;4.77;100.00;101320.75;5059685;28;20032;-81
2023/12/14 05:20:26;;;;;;;28.50;23.55;;;;;;;4.77;100.00;101326.81;5055221;28;20492;-81
2023/12/14 05:22:51;;;;;;;25.63;22.88;;;;;;;4.79;100.00;101332.78;5065970;28;20052;-81
2023/12/14 05:25:17;;;;;;;26.90;24.02;;;;;;;4.80;100.00;101334.50;5064617;28;20127;-81
2023/12/14 05:27:42;;;;;;;26.63;23.92;;;;;;;4.80;100.00;101339.69;5050240;28;20496;-81
2023/12/14 05:30:08;;;;;;;26.02;23.25;;;;;;;4.82;100.00;101344.88;5050410;28;20511;-81
2023/12/14 05:32:33;;;;;;;26.02;23.42;;;;;;;4.82;100.00;101348.34;5066924;28;20049;-81
2023/12/14 05:34:59;;;;;;;26.02;23.33;;;;;;;4.82;100.00;101358.75;5049922;28;20053;-81
2023/12/14 05:37:25;;;;;;;25.80;23.10;;;;;;;4.82;100.00;101363.97;5056534;28;20116;-81
2023/12/14 05:39:50;;;;;;;26.10;23.25;;;;;;;4.89;100.00;101372.38;5059981;28;20028;-81
2023/12/14 05:42:17;;;;;;;26.20;23.50;;;;;;;4.84;100.00;101375.19;5053991;28;20051;-81
2023/12/14 05:44:44;;;;;;;25.15;22.55;;;;;;;4.84;100.00;101380.41;5053898;28;20035;-81
2023/12/14 05:47:09;;;;;;;25.52;22.92;;;;;;;4.84;100.00;101393.44;5062996;28;20025;-81
2023/12/14 05:49:35;;;;;;;24.75;22.13;;;;;;;4.86;100.00;101394.22;5069055;28;20025;-81
2023/12/14 05:52:00;;;;;;;24.15;21.55;;;;;;;4.86;100.00;101403.78;5067438;28;20480;-81
2023/12/14 05:54:25;;;;;;;24.42;21.90;;;;;;;4.86;100.00;101411.63;5054876;28;20115;-81
2023/12/14 05:56:51;;;;;;;25.23;22.65;;;;;;;4.83;100.00;101416.97;5065888;28;20111;-81
2023/12/14 05:59:17;;;;;;;25.08;22.42;;;;;;;4.89;100.00;101420.16;5062650;28;20029;-81
2023/12/14 06:01:43;;;;;;;24.80;22.30;;;;;;;4.84;100.00;101419.50;5058505;28;20028;-81
2023/12/14 06:04:08;;;;;;;25.23;22.63;;;;;;;4.88;100.00;101428.03;5061560;28;20032;-81
2023/12/14 06:06:34;;;;;;;24.63;22.25;;;;;;;4.84;100.00;101429.09;5060405;28;20035;-81
2023/12/14 06:08:59;;;;;;;23.77;21.48;;;;;;;4.86;100.00;101427.25;5055768;28;20116;-81
2023/12/14 06:11:25;;;;;;;24.88;22.13;;;;;;;4.87;100.00;101427.19;5062234;28;20037;-81
2023/12/14 06:13:51;;;;;;;23.15;20.95;;;;;;;4.86;100.00;101429.88;5061950;28;20032;-81
2023/12/14 06:16:16;;;;;;;24.27;21.88;;;;;;;4.83;100.00;101438.66;5057607;28;20397;-81
2023/12/14 06:18:43;;;;;;;24.42;21.95;;;;;;;4.83;100.00;101433.44;5063841;28;20067;-80
2023/12/14 06:21:08;;;;;;;23.70;21.30;;;;;;;4.88;100.00;101438.47;5055497;28;20020;-80
2023/12/14 06:23:35;;;;;;;24.50;22.08;;;;;;;4.83;100.00;101446.50;5056214;28;20028;-80
2023/12/14 06:26:03;;;;;;;25.15;22.65;;;;;;;4.84;100.00;101458.59;5051578;28;20112;-80
2023/12/14 06:28:30;;;;;;;23.67;21.38;;;;;;;4.83;100.00;101461.28;5064792;28;20116;-80
2023/12/14 06:30:55;;;;;;;24.77;22.35;;;;;;;4.83;100.00;101456.91;5066325;28;20045;-80
2023/12/14 06:33:21;;;;;;;24.70;22.30;;;;;;;4.85;100.00;101469.88;5065116;28;20510;-80
2023/12/14 06:35:47;;;;;;;24.60;22.20;;;;;;;4.87;100.00;101468.91;5049354;28;20136;-80
2023/12/14 06:38:12;;;;;;;23.77;21.48;;;;;;;4.87;100.00;101473.28;5054310;28;20388;-80
2023/12/14 06:40:38;;;;;;;24.48;22.05;;;;;;;4.84;100.00;101478.63;5069984;28;20020;-80
2023/12/14 06:43:05;;;;;;;25.35;22.75;;;;;;;4.85;100.00;101486.38;5069092;28;20502;-81
2023/12/14 06:45:30;;;;;;;25.83;23.15;;;;;;;4.85;100.00;101485.53;5065641;28;20624;-81
2023/12/14 06:47:56;;;;;;;31.73;25.38;;;;;;;4.82;100.00;101486.50;5058943;28;20103;-81
2023/12/14 06:50:21;;;;;;;30.63;25.35;;;;;;;4.82;100.00;101485.66;5067114;28;20032;-81
2023/12/14 06:52:47;;;;;;;34.33;26.27;;;;;;;4.78;100.00;101484.91;5051149;28;20029;-80
2023/12/14 06:55:14;;;;;;;31.17;25.90;;;;;;;4.77;100.00;101498.84;5058151;28;20089;-81
2023/12/14 06:57:39;;;;;;;32.58;26.63;;;;;;;4.76;100.00;101499.75;5064032;28;20029;-81
2023/12/14 07:00:05;;;;;;;37.10;27.00;;;;;;;4.73;100.00;101503.31;5049904;28;20025;-81
2023/12/14 07:02:31;;;;;;;37.70;27.05;;;;;;;4.70;100.00;101513.88;5055753;28;20028;-81
2023/12/14 07:04:56;;;;;;;34.75;27.25;;;;;;;4.73;100.00;101518.13;5065291;28;20030;-81
2023/12/14 07:07:21;;;;;;;33.05;27.02;;;;;;;4.72;100.00;101516.41;5065083;28;20025;-81
2023/12/14 07:09:47;;;;;;;34.63;26.80;;;;;;;4.69;100.00;101519.16;5065416;28;20021;-79
2023/12/14 07:12:13;;;;;;;36.10;27.30;;;;;;;4.67;100.00;101520.97;5069219;28;20040;-80
2023/12/14 07:14:38;;;;;;;34.60;26.60;;;;;;;4.65;100.00;101531.47;5067999;28;20043;-80
2023/12/14 07:17:05;;;;;;;35.90;26.77;;;;;;;4.63;100.00;101532.41;5062413;28;20032;-81
2023/12/14 07:19:31;;;;;;;34.17;26.83;;;;;;;4.65;100.00;101541.88;5069226;28;20028;-80
2023/12/14 07:21:56;;;;;;;34.25;26.00;;;;;;;4.66;100.00;101553.16;5070814;28;20047;-81
2023/12/14 07:24:24;;;;;;;32.60;25.55;;;;;;;4.62;100.00;101562.84;5068555;28;20476;-81
2023/12/14 07:26:50;;;;;;;32.65;24.63;;;;;;;4.62;100.00;101562.00;5069362;28;20410;-81
2023/12/14 07:29:16;;;;;;;36.45;25.40;;;;;;;4.63;100.00;101569.75;5061532;28;20036;-82
2023/12/14 07:31:41;;;;;;;33.58;23.63;;;;;;;4.60;100.00;101576.84;5051448;28;20386;-82
2023/12/14 07:34:08;;;;;;;32.05;24.15;;;;;;;4.59;100.00;101572.53;5055695;28;20047;-81
2023/12/14 07:36:33;;;;;;;30.67;23.13;;;;;;;4.60;100.00;101579.44;5066565;28;20043;-82
2023/12/14 07:39:00;;;;;;;31.08;22.88;;;;;;;4.58;100.00;101581.25;5069522;28;20029;-81
2023/12/14 07:41:29;;;;;;;31.73;23.48;;;;;;;4.57;100.00;101584.78;5056682;28;20451;-81
2023/12/14 07:43:55;;;;;;;31.77;22.77;;;;;;;4.54;100.00;101580.53;5067657;28;20082;-81
2023/12/14 07:46:20;;;;;;;32.60;22.25;;;;;;;4.53;100.00;101598.84;5069137;28;20029;-81
2023/12/14 07:48:46;;;;;;;29.20;22.48;;;;;;;4.55;100.00;101591.81;5065418;28;20111;-81
2023/12/14 07:51:12;;;;;;;29.85;21.65;;;;;;;4.55;100.00;101603.06;5060903;28;20052;-81
2023/12/14 07:53:37;;;;;;;28.48;20.85;;;;;;;4.51;100.00;101598.88;5049037;28;20481;-82
2023/12/14 07:56:03;;;;;;;29.00;22.02;;;;;;;4.52;100.00;101602.34;5057497;28;20027;-82
2023/12/14 07:58:28;;;;;;;28.60;21.23;;;;;;;4.52;100.00;101612.78;5068030;28;20044;-82
2023/12/14 08:00:54;;;;;;;27.92;21.25;;;;;;;4.53;100.00;101619.69;5069536;28;20016;-82
2023/12/14 08:03:19;;;;;;;31.60;20.73;;;;;;;4.54;100.00;101626.59;5067454;28;20024;-82
2023/12/14 08:05:44;;;;;;;24.77;19.95;;;;;;;4.53;100.00;101624.88;5066882;28;20033;-82
2023/12/14 08:08:10;;;;;;;26.42;19.30;;;;;;;4.52;100.00;101626.66;5055670;28;20023;-82
2023/12/14 08:10:35;;;;;;;26.60;19.13;;;;;;;4.54;100.00;101627.44;5053002;28;20025;-82
2023/12/14 08:13:00;;;;;;;22.13;18.40;;;;;;;4.52;100.00;101628.41;5056185;28;20032;-82
2023/12/14 08:15:26;;;;;;;21.75;18.40;;;;;;;4.52;100.00;101628.41;5068569;28;20032;-82
2023/12/14 08:17:51;;;;;;;20.85;17.92;;;;;;;4.52;100.00;101633.63;5056625;28;20036;-81
2023/12/14 08:20:16;;;;;;;22.15;17.55;;;;;;;4.50;100.00;101640.63;5050653;28;20679;-81
2023/12/14 08:22:44;;;;;;;19.52;17.15;;;;;;;4.51;100.00;101642.34;5050569;28;20060;-81
2023/12/14 08:25:12;;;;;;;19.75;17.40;;;;;;;4.53;100.00;101656.16;5054057;28;20032;-81
2023/12/14 08:27:38;;;;;;;19.45;17.35;;;;;;;4.54;100.00;101663.91;5047804;28;20044;-81
2023/12/14 08:30:03;;;;;;;19.17;17.17;;;;;;;4.53;100.00;101674.41;5060589;28;20060;-81
2023/12/14 08:32:29;;;;;;;19.63;17.52;;;;;;;4.51;100.00;101673.59;5066261;28;20036;-82
2023/12/14 08:34:54;;;;;;;20.67;17.90;;;;;;;4.51;100.00;101678.81;5066719;28;20030;-81
2023/12/14 08:37:19;;;;;;;22.83;18.00;;;;;;;4.52;100.00;101677.91;5068445;28;20032;-81
2023/12/14 08:39:45;;;;;;;20.88;18.08;;;;;;;4.50;100.00;101683.19;5067065;28;20311;-81
2023/12/14 08:42:11;;;;;;;24.13;18.67;;;;;;;4.50;100.00;101704.03;5069021;28;20480;-81
2023/12/14 08:44:39;;;;;;;19.55;16.73;;;;;;;4.52;100.00;101703.97;5067871;28;20063;-83
2023/12/14 08:47:05;;;;;;;19.55;17.55;;;;;;;4.51;100.00;101710.09;5061284;28;20036;-83
2023/12/14 08:49:30;;;;;;;19.17;17.17;;;;;;;4.54;100.00;101715.19;5048082;28;20067;-83
2023/12/14 08:51:56;;;;;;;19.67;17.52;;;;;;;4.52;100.00;101706.56;5048409;28;20031;-83
2023/12/14 08:54:21;;;;;;;20.27;17.15;;;;;;;4.51;100.00;101700.50;5065780;28;20028;-83
2023/12/14 08:56:47;;;;;;;19.98;17.88;;;;;;;4.54;100.00;101702.16;5067572;28;20044;-86
2023/12/14 08:59:13;;;;;;;18.73;16.73;;;;;;;4.52;100.00;101710.03;5067383;28;20027;-86
2023/12/14 09:01:39;;;;;;;19.45;17.45;;;;;;;4.54;100.00;101704.75;5066910;28;20056;-84
2023/12/14 09:04:05;;;;;;;19.55;16.23;;;;;;;4.55;100.00;101711.69;5066852;28;20036;-84
2023/12/14 09:06:31;;;;;;;18.33;16.42;;;;;;;4.59;100.00;101708.91;5067420;28;20036;-84
2023/12/14 09:08:56;;;;;;;17.88;16.02;;;;;;;4.58;100.00;101727.22;5067393;28;20013;-85
2023/12/14 09:11:21;;;;;;;17.60;15.85;;;;;;;4.58;100.00;101737.63;5066860;28;20123;-86
2023/12/14 09:13:47;;;;;;;16.67;15.07;;;;;;;4.57;100.00;101730.72;5066385;28;20036;-82
2023/12/14 09:16:12;;;;;;;16.42;14.82;;;;;;;4.58;100.00;101745.44;5066792;28;20453;-82
2023/12/14 09:18:38;;;;;;;17.10;15.38;;;;;;;4.56;100.00;101747.25;5067648;28;20033;-82
2023/12/14 09:21:04;;;;;;;16.15;14.55;;;;;;;4.56;100.00;101755.94;5067043;28;20039;-82
2023/12/14 09:23:29;;;;;;;16.70;14.95;;;;;;;4.61;100.00;101763.59;5066073;28;20028;-82
2023/12/14 09:25:56;;;;;;;16.05;14.45;;;;;;;4.60;100.00;101769.69;5069371;28;20031;-82
2023/12/14 09:28:21;;;;;;;15.32;13.85;;;;;;;4.58;100.00;101768.91;5065395;28;20027;-82
2023/12/14 09:30:47;;;;;;;16.25;14.65;;;;;;;4.57;100.00;101775.03;5070486;28;20518;-82
2023/12/14 09:33:12;;;;;;;15.50;13.88;;;;;;;4.59;100.00;101784.50;5071119;28;20075;-82
2023/12/14 09:35:38;;;;;;;16.00;14.30;;;;;;;4.61;100.00;101792.25;5071493;28;20031;-82
2023/12/14 09:38:04;;;;;;;16.90;15.30;;;;;;;4.62;100.00;101799.16;5070867;28;20506;-82
2023/12/14 09:40:30;;;;;;;15.80;14.18;;;;;;;4.63;100.00;101804.31;5071766;28;20565;-82
2023/12/14 09:42:56;;;;;;;16.80;14.73;;;;;;;4.69;100.00;101798.06;5070298;28;20107;-82
2023/12/14 09:45:27;;;;;;;15.70;13.70;;;;;;;4.65;100.00;101807.72;5072540;28;20052;-82
2023/12/14 09:47:53;;;;;;;14.95;13.45;;;;;;;4.69;100.00;101808.47;5071016;28;20387;-82
2023/12/14 09:50:20;;;;;;;15.38;13.85;;;;;;;4.70;100.00;101810.19;5071703;28;20116;-82
2023/12/14 09:52:48;;;;;;;16.50;14.57;;;;;;;4.73;100.00;101817.88;5072642;28;20024;-82
2023/12/14 09:55:14;;;;;;;15.93;14.23;;;;;;;4.76;100.00;101827.34;5071635;28;20021;-81
2023/12/14 09:57:40;;;;;;;15.80;13.98;;;;;;;4.72;100.00;101830.06;5071002;28;20028;-82
2023/12/14 10:00:10;;;;;;;16.10;14.27;;;;;;;4.70;100.00;101837.09;5070601;28;20028;-82
2023/12/14 10:02:35;;;;;;;16.85;15.05;;;;;;;4.68;100.00;101833.69;5070469;28;20028;-82
2023/12/14 10:05:01;;;;;;;16.25;14.52;;;;;;;4.70;100.00;101844.06;5069714;28;20031;-81
2023/12/14 10:07:26;;;;;;;16.38;14.75;;;;;;;4.66;100.00;101842.47;5072137;28;20020;-81
2023/12/14 10:09:53;;;;;;;17.50;15.15;;;;;;;4.66;100.00;101856.34;5070601;28;20126;-81
2023/12/14 10:12:19;;;;;;;17.48;15.43;;;;;;;4.69;100.00;101858.84;5068456;28;20123;-81
2023/12/14 10:14:44;;;;;;;18.02;15.10;;;;;;;4.70;100.00;101862.31;5071988;28;20032;-81
2023/12/14 10:17:21;;;;;;;16.13;14.40;;;;;;;4.70;100.00;101860.56;5070559;28;20082;-81
2023/12/14 10:19:48;;;;;;;15.88;14.20;;;;;;;4.64;100.00;101857.31;5051201;28;20032;-81
2023/12/14 10:22:20;;;;;;;15.98;14.38;;;;;;;4.63;100.00;101871.25;5065384;28;20025;-81
2023/12/14 10:24:47;;;;;;;15.48;13.82;;;;;;;4.67;100.00;101867.63;5069908;28;20036;-81
2023/12/14 10:27:14;;;;;;;15.27;13.68;;;;;;;4.66;100.00;101873.75;5070541;28;20056;-81
2023/12/14 10:29:40;;;;;;;15.35;13.80;;;;;;;4.70;100.00;101872.75;5070980;28;20060;-81
2023/12/14 10:32:08;;;;;;;16.33;13.30;;;;;;;4.65;100.00;101866.81;5069771;28;20135;-81
2023/12/14 10:34:35;;;;;;;14.85;13.32;;;;;;;4.67;100.00;101865.03;5069321;28;20016;-81
2023/12/14 10:37:01;;;;;;;16.17;13.30;;;;;;;4.72;100.00;101865.72;5069814;28;20403;-81
2023/12/14 10:39:29;;;;;;;15.77;14.20;;;;;;;4.71;100.00;101874.44;5070053;28;20032;-81
2023/12/14 10:41:57;;;;;;;14.75;12.90;;;;;;;4.67;100.00;101880.66;5071021;28;20047;-81
2023/12/14 10:44:27;;;;;;;15.23;13.23;;;;;;;4.69;100.00;101878.84;5070902;28;20028;-81
2023/12/14 10:46:58;;;;;;;15.15;12.68;;;;;;;4.65;100.00;101885.06;5069259;28;20028;-81
2023/12/14 10:49:25;;;;;;;13.63;12.30;;;;;;;4.67;100.00;101878.06;5070968;28;20464;-81
2023/12/14 10:51:55;;;;;;;16.02;13.75;;;;;;;4.71;100.00;101884.88;5070374;28;20028;-82
2023/12/14 10:54:23;;;;;;;17.88;16.00;;;;;;;4.73;100.00;101890.88;5070208;28;20028;-83
2023/12/14 10:56:48;;;;;;;15.13;13.15;;;;;;;4.73;100.00;101899.56;5071334;28;20028;-84
2023/12/14 10:59:18;;;;;;;14.15;12.70;;;;;;;4.68;100.00;101893.63;5072196;28;20028;-83
2023/12/14 11:01:43;;;;;;;15.27;13.23;;;;;;;4.77;100.00;101894.25;5068079;28;20029;-82
2023/12/14 11:04:13;;;;;;;17.65;15.60;;;;;;;4.69;100.00;101897.09;5052215;28;20033;-82